DW1274 Jacksonville FL US current weather conditions

sailwx.info

Wind from 300 at 1 knots gusting 4

Air temperature 10.6° C
Dewpoint 8.5° C

Last reported at 2020-Jan-25 14:02 UTC.
Time now 2020-Jan-25 14:29 UTC

Location: N 30°18' W 081°52'.
View on Google Maps.

See reports from other nearby stations

  
Tides and Currents Weather Stations Pressure Air Temp Water Temp Dewpoint Dewpoint Depression Visibility Wind Speed Wind Dir Waves Ship Positions
date/time (UTC)wind fromknots sea level pressurealtimeterstation pressurevisibilityair tempwater tempwave heightnotes
2020-Jan-25 14:02 300 1 gusting 4 10.6
2020-Jan-25 13:57 304 1 gusting 4 10.6
2020-Jan-25 13:52 287 1 gusting 4 10.6
2020-Jan-25 13:47 294 1 gusting 3 10.6
2020-Jan-25 13:42 288 1 gusting 3 10.6
2020-Jan-25 13:37 307 0 gusting 3 10.0
2020-Jan-25 13:32 276 0 gusting 2 10.0
2020-Jan-25 13:27 280 10.0
2020-Jan-25 13:22 281 10.0
2020-Jan-25 13:17 281 10.0
2020-Jan-25 13:12 281 9.4
2020-Jan-25 13:07 281 9.4
2020-Jan-25 13:02 283 9.4
2020-Jan-25 12:57 279 9.4
2020-Jan-25 12:52 279 9.4
2020-Jan-25 12:47 279 9.4
2020-Jan-25 12:42 279 9.4
2020-Jan-25 12:37 279 10.0
2020-Jan-25 12:32 279 10.0
2020-Jan-25 12:27 279 10.0
2020-Jan-25 12:22 279 10.0
2020-Jan-25 12:17 279 10.0
2020-Jan-25 12:12 279 10.6
2020-Jan-25 12:07 279 10.6
2020-Jan-25 12:02 279 10.6
2020-Jan-25 11:57 279 10.6
2020-Jan-25 11:52 279 10.6
2020-Jan-25 11:47 279 10.6
2020-Jan-25 11:42 279 10.6
2020-Jan-25 11:37 279 11.1
2020-Jan-25 11:32 279 11.1
2020-Jan-25 11:27 279 11.1
2020-Jan-25 11:22 279 11.1
2020-Jan-25 11:17 279 11.1
2020-Jan-25 11:12 279 11.7
2020-Jan-25 11:07 279 11.7
2020-Jan-25 11:02 279 11.7
2020-Jan-25 10:57 279 11.7
2020-Jan-25 10:52 279 11.7
2020-Jan-25 10:47 279 11.7
2020-Jan-25 10:42 279 11.7
2020-Jan-25 10:37 279 12.2
2020-Jan-25 10:32 279 12.2
2020-Jan-25 10:27 279 12.2
2020-Jan-25 10:22 279 12.2
2020-Jan-25 10:17 279 12.2
2020-Jan-25 10:12 279 12.8
2020-Jan-25 10:07 279 12.8
2020-Jan-25 10:02 279 12.8
2020-Jan-25 09:57 279 12.8
2020-Jan-25 09:52 279 12.8
2020-Jan-25 09:47 279 12.8
2020-Jan-25 09:42 279 13.3
2020-Jan-25 09:37 279 13.3
2020-Jan-25 09:32 279 13.3
2020-Jan-25 09:27 279 13.3
2020-Jan-25 09:22 279 0 gusting 3 13.3
2020-Jan-25 09:17 279 1 gusting 3 13.3
2020-Jan-25 09:12 279 0 gusting 3 13.3
2020-Jan-25 09:07 284 0 gusting 3 13.9
2020-Jan-25 09:02 282 0 gusting 3 13.9
2020-Jan-25 08:57 285 0 gusting 3 13.9
2020-Jan-25 08:52 273 0 gusting 2 13.9
2020-Jan-25 08:47 271 0 gusting 2 13.9
2020-Jan-25 08:42 271 0 gusting 2 14.4
2020-Jan-25 08:37 267 0 gusting 2 14.4
2020-Jan-25 08:32 269 0 gusting 2 14.4
2020-Jan-25 08:27 262 0 gusting 2 14.4
2020-Jan-25 08:22 252 0 gusting 1 14.4
2020-Jan-25 08:17 244 0 gusting 1 14.4
2020-Jan-25 08:12 242 14.4
2020-Jan-25 08:07 240 15.0
2020-Jan-25 08:02 240 15.0
2020-Jan-25 07:57 240 15.0
2020-Jan-25 07:52 240 15.0
2020-Jan-25 07:47 240 15.0
2020-Jan-25 07:42 240 15.0
2020-Jan-25 07:37 240 15.0
2020-Jan-25 07:32 240 15.0
2020-Jan-25 07:27 240 15.0
2020-Jan-25 07:22 240 15.6
2020-Jan-25 07:17 240 15.6
2020-Jan-25 07:12 240 15.6
2020-Jan-25 07:07 240 15.6
2020-Jan-25 07:02 240 15.6
2020-Jan-25 06:57 240 15.6
2020-Jan-25 06:52 240 16.1
2020-Jan-25 06:47 240 16.1
2020-Jan-25 06:42 240 16.1
2020-Jan-25 06:37 240 16.1
2020-Jan-25 06:32 240 16.1
2020-Jan-25 06:27 240 16.7
2020-Jan-25 06:22 242 16.7
2020-Jan-25 06:17 242 16.7
2020-Jan-25 06:12 239 16.7
2020-Jan-25 06:07 236 16.7
2020-Jan-25 06:02 236 16.7
2020-Jan-25 05:57 236 16.7
2020-Jan-25 05:52 236 16.7
2020-Jan-25 05:47 236 16.7
2020-Jan-25 05:42 236 17.2
2020-Jan-25 05:37 236 17.2
2020-Jan-25 05:32 235 17.2
2020-Jan-25 05:27 233 17.2
2020-Jan-25 05:22 233 17.2
2020-Jan-25 05:17 236 0 17.2
2020-Jan-25 04:57 238 0 gusting 5 17.8
2020-Jan-25 04:52 233 0 gusting 5 17.8
2020-Jan-25 04:47 278 0 gusting 5 17.8
2020-Jan-25 04:42 243 0 gusting 5 17.8
2020-Jan-25 04:37 246 0 gusting 5 17.8
2020-Jan-25 04:32 234 0 gusting 4 17.8
2020-Jan-25 04:27 226 0 gusting 4 17.8
2020-Jan-25 04:22 254 0 gusting 4 17.8
2020-Jan-25 04:17 222 0 gusting 2 17.8
2020-Jan-25 04:12 219 17.8
2020-Jan-25 04:07 215 17.8
2020-Jan-25 04:02 215 17.8
2020-Jan-25 03:57 215 17.8
2020-Jan-25 03:52 215 17.8
2020-Jan-25 03:47 215 17.8
2020-Jan-25 03:42 215 17.8
2020-Jan-25 03:37 215 17.8
2020-Jan-25 03:32 215 18.3
2020-Jan-25 03:27 215 18.3
2020-Jan-25 03:22 215 18.3
2020-Jan-25 03:17 215 18.3
2020-Jan-25 03:12 215 18.3
2020-Jan-25 03:07 216 18.3
2020-Jan-25 03:02 217 0 gusting 2 18.3
2020-Jan-25 02:57 209 0 gusting 2 18.3
2020-Jan-25 02:52 186 17.8
2020-Jan-25 02:47 185 17.8
2020-Jan-25 02:42 185 17.8
2020-Jan-25 02:37 185 17.8
2020-Jan-25 02:32 184 17.2
2020-Jan-25 02:27 184 17.2
2020-Jan-25 02:22 185 17.8
2020-Jan-25 02:17 185 17.8
2020-Jan-25 02:12 185 17.8
2020-Jan-25 02:07 184 17.8
2020-Jan-25 02:02 185 17.8
2020-Jan-25 01:57 184 17.8
2020-Jan-25 01:52 185 17.8
2020-Jan-25 01:47 184 17.8
2020-Jan-25 01:42 184 17.8
2020-Jan-25 01:37 184 17.8
2020-Jan-25 01:32 185 17.8
2020-Jan-25 01:27 184 17.8
2020-Jan-25 01:22 184 17.8
2020-Jan-25 01:17 185 17.8
2020-Jan-25 01:12 184 17.8
2020-Jan-25 01:07 184 17.8
2020-Jan-25 01:02 185 17.8
2020-Jan-25 00:57 185 17.8
2020-Jan-25 00:52 184 18.3
2020-Jan-25 00:47 184 18.3
2020-Jan-25 00:42 185 18.3
2020-Jan-25 00:37 185 18.3
2020-Jan-25 00:32 185 18.3
2020-Jan-25 00:27 185 18.3
2020-Jan-25 00:22 185 18.3
2020-Jan-25 00:17 184 18.3
2020-Jan-25 00:12 185 18.3
2020-Jan-25 00:07 185 18.3
2020-Jan-25 00:02 185 18.9
2020-Jan-24 23:57 185 18.9
2020-Jan-24 23:52 185 18.9
2020-Jan-24 23:47 185 18.9
2020-Jan-24 23:42 184 18.9
2020-Jan-24 23:37 185 18.9
2020-Jan-24 23:32 184 19.4
2020-Jan-24 23:27 185 19.4
2020-Jan-24 23:22 185 19.4
2020-Jan-24 23:17 184 19.4
2020-Jan-24 23:12 185 20.0
2020-Jan-24 23:07 185 20.0
2020-Jan-24 23:02 185 20.0
2020-Jan-24 22:57 184 20.6
2020-Jan-24 22:52 185 20.6
2020-Jan-24 22:47 185 20.6
2020-Jan-24 22:42 184 20.6
2020-Jan-24 22:37 185 21.1
2020-Jan-24 22:32 185 21.1
2020-Jan-24 22:27 185 21.1
2020-Jan-24 22:22 185 21.1
2020-Jan-24 22:17 185 21.7
2020-Jan-24 22:12 186 0 gusting 6 21.7
2020-Jan-24 22:07 194 0 gusting 4 21.7
2020-Jan-24 22:02 198 0 gusting 2 21.7
2020-Jan-24 21:57 202 21.7
2020-Jan-24 21:52 204 21.7
2020-Jan-24 21:47 212 21.7
2020-Jan-24 21:42 212 0 gusting 3 21.7
2020-Jan-24 21:37 212 0 gusting 4 22.2
2020-Jan-24 21:32 218 0 gusting 4 22.2
2020-Jan-24 21:27 231 22.2
2020-Jan-24 21:22 213 22.2
2020-Jan-24 21:17 223 21.7
2020-Jan-24 21:12 226 21.7
2020-Jan-24 21:07 226 0 gusting 2 21.7
2020-Jan-24 21:02 226 0 gusting 4 21.7
2020-Jan-24 20:57 223 0 gusting 4 21.7
2020-Jan-24 20:52 225 0 gusting 6 21.7
2020-Jan-24 20:47 233 0 gusting 6 22.2
2020-Jan-24 20:42 237 0 gusting 6 22.2
2020-Jan-24 20:37 164 22.2
2020-Jan-24 20:32 164 22.8
2020-Jan-24 20:27 164 22.8
2020-Jan-24 20:22 164 0 gusting 6 22.8
2020-Jan-24 20:17 163 0 gusting 9 22.8
2020-Jan-24 20:12 167 1 gusting 9 23.3
2020-Jan-24 20:07 217 1 gusting 9 23.3
2020-Jan-24 20:02 195 2 gusting 9 23.3
2020-Jan-24 19:57 180 2 gusting 8 23.3
2020-Jan-24 19:52 182 1 gusting 6 23.3
2020-Jan-24 19:47 193 23.3
2020-Jan-24 19:42 232 0 gusting 7 23.3
2020-Jan-24 19:37 232 0 gusting 5 23.9
2020-Jan-24 19:32 181 0 gusting 6 23.9
2020-Jan-24 19:27 181 1 gusting 6 23.9
2020-Jan-24 19:22 182 1 gusting 6 24.4
2020-Jan-24 19:17 146 0 gusting 4 24.4
2020-Jan-24 19:12 218 0 gusting 7 25.0
2020-Jan-24 19:07 185 1 gusting 7 25.0
2020-Jan-24 19:02 185 1 gusting 7 25.0
2020-Jan-24 18:57 191 0 gusting 4 25.0
2020-Jan-24 18:52 168 25.6
2020-Jan-24 18:47 167 25.6
2020-Jan-24 18:42 167 0 gusting 6 24.4
2020-Jan-24 18:37 167 1 gusting 8 24.4
2020-Jan-24 18:32 163 1 gusting 8 24.4
2020-Jan-24 18:27 161 0 gusting 8 24.4
2020-Jan-24 18:22 188 24.4
2020-Jan-24 18:17 193 24.4
2020-Jan-24 18:12 170 24.4
2020-Jan-24 18:07 170 24.4
2020-Jan-24 18:02 165 24.4
2020-Jan-24 17:57 165 0 gusting 8 24.4
2020-Jan-24 17:52 165 0 gusting 8 24.4
2020-Jan-24 17:47 181 0 gusting 4 24.4
2020-Jan-24 17:42 181 0 gusting 4 24.4
2020-Jan-24 17:37 212 23.9
2020-Jan-24 17:32 213 0 gusting 4 23.9
2020-Jan-24 17:27 213 0 gusting 3 23.9
2020-Jan-24 17:22 175 23.9
2020-Jan-24 17:17 170 24.4
2020-Jan-24 17:12 165 0 gusting 8 24.4
2020-Jan-24 17:07 179 2 gusting 8 24.4
2020-Jan-24 17:02 134 2 gusting 8 24.4
2020-Jan-24 16:57 128 2 gusting 8 23.9
2020-Jan-24 16:52 138 2 gusting 6 23.9
2020-Jan-24 16:47 188 1 gusting 4 23.9
2020-Jan-24 16:42 169 0 gusting 4 23.3
2020-Jan-24 16:37 173 0 gusting 4 23.3
2020-Jan-24 16:12 133 0 gusting 6 22.8
2020-Jan-24 16:07 132 1 gusting 6 22.2
2020-Jan-24 16:02 142 1 gusting 6 22.2
2020-Jan-24 15:57 133 1 gusting 9 21.7
2020-Jan-24 15:52 137 1 gusting 9 21.7
2020-Jan-24 15:47 126 1 gusting 9 21.7
2020-Jan-24 15:42 136 3 gusting 9 21.1
2020-Jan-24 15:37 134 3 gusting 9 21.1
2020-Jan-24 15:32 128 3 gusting 11 21.1
2020-Jan-24 15:27 125 2 gusting 11 21.1
2020-Jan-24 15:22 154 2 gusting 11 21.1
2020-Jan-24 15:17 135 2 gusting 3 20.6
2020-Jan-24 15:12 123 0 gusting 2 20.6
2020-Jan-24 15:07 160 0 gusting 2 20.6
2020-Jan-24 15:02 138 0 gusting 2 20.0
2020-Jan-24 14:57 140 0 gusting 2 19.4
2020-Jan-24 14:52 154 0 gusting 2 19.4
2020-Jan-24 14:47 152 0 gusting 2 18.9
2020-Jan-24 14:42 169 0 gusting 3 18.9
2020-Jan-24 14:37 153 18.3
2020-Jan-24 14:32 139 0 gusting 2 18.3
2020-Jan-24 14:27 143 0 gusting 2 18.3
2020-Jan-24 14:22 137 0 gusting 2 17.8
2020-Jan-24 14:17 145 17.8
2020-Jan-24 14:12 154 17.2
2020-Jan-24 14:07 191 17.2
2020-Jan-24 14:02 191 16.7
2020-Jan-24 13:57 191 16.7
2020-Jan-24 13:52 190 16.7
2020-Jan-24 13:47 189 16.1
2020-Jan-24 13:42 189 15.6
2020-Jan-24 13:37 161 15.6
2020-Jan-24 13:32 134 15.0
2020-Jan-24 13:27 134 15.0
2020-Jan-24 13:22 107 15.0
2020-Jan-24 13:17 055 14.4
2020-Jan-24 13:12 051 14.4
2020-Jan-24 13:07 051 14.4
2020-Jan-24 13:02 051 13.9
2020-Jan-24 12:57 051 13.9
2020-Jan-24 12:52 051 13.9
2020-Jan-24 12:47 051 13.9
2020-Jan-24 12:42 044 13.9
2020-Jan-24 12:37 038 13.9
2020-Jan-24 12:32 038 13.9
2020-Jan-24 12:27 038 13.9
2020-Jan-24 12:22 038 13.9
2020-Jan-24 12:17 038 13.9
2020-Jan-24 12:12 038 13.9
2020-Jan-24 12:07 038 13.9
2020-Jan-24 12:02 038 13.9
2020-Jan-24 11:57 038 13.9
2020-Jan-24 11:52 038 13.9
2020-Jan-24 11:47 038 13.9
2020-Jan-24 11:42 038 13.9
2020-Jan-24 11:37 038 13.9
2020-Jan-24 11:32 038 13.9
2020-Jan-24 11:27 038 13.9
2020-Jan-24 11:22 038 13.9
2020-Jan-24 11:17 038 13.9
2020-Jan-24 11:12 038 13.9
2020-Jan-24 11:07 038 13.9
2020-Jan-24 11:02 038 13.9
2020-Jan-24 10:57 038 13.9
2020-Jan-24 10:52 038 13.9
2020-Jan-24 10:47 038 13.9
2020-Jan-24 10:42 038 13.9
2020-Jan-24 10:37 038 13.9
2020-Jan-24 10:32 038 13.9
2020-Jan-24 10:27 038 13.9
2020-Jan-24 10:22 038 13.9
2020-Jan-24 10:17 038 13.9
2020-Jan-24 10:12 038 13.9
2020-Jan-24 10:07 038 13.9
2020-Jan-24 10:02 038 13.9
2020-Jan-24 09:57 038 13.9
2020-Jan-24 09:52 038 13.9
2020-Jan-24 09:47 038 13.9
2020-Jan-24 09:42 038 13.9
2020-Jan-24 09:37 038 13.9
2020-Jan-24 09:32 038 13.9
2020-Jan-24 09:27 038 14.4
2020-Jan-24 09:22 038 14.4
2020-Jan-24 09:17 038 14.4
2020-Jan-24 09:12 038 14.4
2020-Jan-24 09:07 038 14.4
2020-Jan-24 09:02 038 14.4
2020-Jan-24 08:57 038 14.4
2020-Jan-24 08:52 038 14.4
2020-Jan-24 08:47 038 14.4
2020-Jan-24 08:42 038 14.4
2020-Jan-24 08:37 038 14.4
2020-Jan-24 08:32 038 14.4
2020-Jan-24 08:27 038 14.4
2020-Jan-24 08:22 038 14.4
2020-Jan-24 08:17 038 14.4
2020-Jan-24 08:12 038 14.4
2020-Jan-24 08:07 038 14.4
2020-Jan-24 08:02 038 14.4
2020-Jan-24 07:57 038 14.4
2020-Jan-24 07:52 038 14.4
2020-Jan-24 07:47 038 14.4
2020-Jan-24 07:42 038 14.4
2020-Jan-24 07:37 038 14.4
2020-Jan-24 07:32 038 14.4
2020-Jan-24 07:27 038 14.4
2020-Jan-24 07:22 038 14.4
2020-Jan-24 07:17 038 14.4
2020-Jan-24 07:12 038 14.4
2020-Jan-24 07:07 038 14.4
2020-Jan-24 07:02 038 14.4
2020-Jan-24 06:57 038 14.4
2020-Jan-24 06:52 038 14.4
2020-Jan-24 06:47 038 14.4
2020-Jan-24 06:42 038 14.4
2020-Jan-24 06:37 038 14.4
2020-Jan-24 06:32 038 14.4
2020-Jan-24 06:27 038 14.4
2020-Jan-24 06:22 038 14.4
2020-Jan-24 06:17 038 14.4
2020-Jan-24 06:12 038 14.4
2020-Jan-24 06:07 038 14.4
2020-Jan-24 06:02 038 14.4
2020-Jan-24 05:57 038 14.4
2020-Jan-24 05:52 038 14.4
2020-Jan-24 05:47 038 14.4
2020-Jan-24 05:42 038 14.4
2020-Jan-24 05:37 038 14.4
2020-Jan-24 05:32 038 14.4
2020-Jan-24 05:27 038 14.4
2020-Jan-24 05:22 038 14.4
2020-Jan-24 05:17 038 14.4
2020-Jan-24 05:12 038 14.4
2020-Jan-24 05:07 038 14.4
2020-Jan-24 05:02 038 14.4
2020-Jan-24 04:57 038 14.4
2020-Jan-24 04:52 038 14.4
2020-Jan-24 04:47 038 14.4
2020-Jan-24 04:42 038 14.4
2020-Jan-24 04:37 038 14.4
2020-Jan-24 04:32 038 14.4
2020-Jan-24 04:27 038 14.4
2020-Jan-24 04:22 038 14.4
2020-Jan-24 04:17 038 14.4
2020-Jan-24 04:12 038 14.4
2020-Jan-24 04:07 038 14.4
2020-Jan-24 04:02 038 13.9
2020-Jan-24 03:57 038 13.9
2020-Jan-24 03:52 038 13.9
2020-Jan-24 03:47 038 13.9
2020-Jan-24 03:42 038 13.9
2020-Jan-24 03:37 038 13.9
2020-Jan-24 03:32 038 13.9
2020-Jan-24 03:27 038 13.9
2020-Jan-24 03:22 038 13.9
2020-Jan-24 03:17 038 13.9
2020-Jan-24 03:12 038 13.9
2020-Jan-24 03:07 038 13.9
2020-Jan-24 03:02 038 13.9
2020-Jan-24 02:42 038 13.3
2020-Jan-24 02:37 038 13.3
2020-Jan-24 02:32 038 13.3
2020-Jan-24 02:27 038 13.3
2020-Jan-24 02:22 038 13.3
2020-Jan-24 02:17 038 13.3
2020-Jan-24 02:12 038 13.3
2020-Jan-24 02:07 038 13.3
2020-Jan-24 02:02 038 13.3
2020-Jan-24 01:57 038 13.3
2020-Jan-24 01:52 038 13.3
2020-Jan-24 01:47 038 13.3
2020-Jan-24 01:42 038 13.3
2020-Jan-24 01:37 038 13.3
2020-Jan-24 01:32 038 13.3
2020-Jan-24 01:27 038 13.3
2020-Jan-24 01:22 038 13.3
2020-Jan-24 01:17 038 13.3
2020-Jan-24 01:12 038 13.3
2020-Jan-24 01:07 038 13.3
2020-Jan-24 01:02 043 13.3
2020-Jan-24 00:57 043 13.3
2020-Jan-24 00:52 042 13.3
2020-Jan-24 00:47 042 13.3
2020-Jan-24 00:42 043 13.3
2020-Jan-24 00:37 047 13.3
2020-Jan-24 00:32 040 13.3
2020-Jan-24 00:27 042 13.3
2020-Jan-24 00:22 051 13.3
2020-Jan-24 00:17 045 13.3
2020-Jan-24 00:12 052 13.3
2020-Jan-24 00:07 029 13.3
2020-Jan-24 00:02 028 13.3
2020-Jan-23 23:57 030 13.3
2020-Jan-23 23:52 040 13.3
2020-Jan-23 23:47 038 13.3
2020-Jan-23 23:42 038 13.3
2020-Jan-23 23:37 036 13.3
2020-Jan-23 23:32 034 13.3
2020-Jan-23 23:27 035 13.9
2020-Jan-23 23:22 036 13.9
2020-Jan-23 23:17 037 13.9
2020-Jan-23 23:12 035 13.9
2020-Jan-23 23:07 037 13.9
2020-Jan-23 23:02 038 14.4
2020-Jan-23 22:57 040 14.4
2020-Jan-23 22:52 041 14.4
2020-Jan-23 22:47 041 14.4
2020-Jan-23 22:42 040 15.0
2020-Jan-23 22:37 026 15.0
2020-Jan-23 22:32 024 15.0
2020-Jan-23 22:27 074 15.6
2020-Jan-23 22:22 084 15.6
2020-Jan-23 22:17 085 15.6
2020-Jan-23 22:12 096 15.6
2020-Jan-23 22:07 111 16.1
2020-Jan-23 22:02 084 16.1
2020-Jan-23 21:57 074 16.7
2020-Jan-23 21:52 096 16.7
2020-Jan-23 21:47 098 16.7
2020-Jan-23 21:42 097 16.7
2020-Jan-23 21:37 046 16.7
2020-Jan-23 21:32 051 16.7
2020-Jan-23 21:27 050 16.7
2020-Jan-23 21:22 048 16.7
2020-Jan-23 21:17 049 16.7
2020-Jan-23 21:12 049 16.7
2020-Jan-23 21:07 048 16.7
2020-Jan-23 21:02 046 16.7
2020-Jan-23 20:57 050 16.7
2020-Jan-23 20:52 060 16.7
2020-Jan-23 20:47 067 16.7
2020-Jan-23 20:42 065 16.7
2020-Jan-23 20:37 062 16.7
2020-Jan-23 20:32 074 16.7
2020-Jan-23 20:27 071 16.7
2020-Jan-23 20:22 071 17.2
2020-Jan-23 20:17 067 17.2
2020-Jan-23 20:12 061 16.7
2020-Jan-23 20:07 071 16.7
2020-Jan-23 20:02 068 16.7
2020-Jan-23 19:57 068 16.7
2020-Jan-23 19:27 039 1 gusting 8 16.7
2020-Jan-23 19:22 042 0 gusting 5 16.7
2020-Jan-23 19:17 057 16.7
2020-Jan-23 19:12 033 16.7
2020-Jan-23 19:07 043 16.7
2020-Jan-23 19:02 050 1 gusting 9 16.7
2020-Jan-23 18:57 058 2 gusting 9 16.7
2020-Jan-23 18:52 038 2 gusting 9 16.7
2020-Jan-23 18:47 076 2 gusting 10 16.7
2020-Jan-23 18:42 355 2 gusting 12 16.7
2020-Jan-23 18:37 051 3 gusting 12 16.7
2020-Jan-23 18:32 045 2 gusting 12 16.7
2020-Jan-23 18:27 077 3 gusting 10 16.7
2020-Jan-23 18:22 044 2 gusting 9 16.7
2020-Jan-23 18:17 064 1 gusting 9 16.7
2020-Jan-23 18:12 042 1 gusting 7 16.7
2020-Jan-23 18:07 097 0 gusting 8 16.7
2020-Jan-23 18:02 021 1 gusting 8 16.7
2020-Jan-23 17:57 042 1 gusting 8 16.7
2020-Jan-23 17:52 042 1 gusting 9 16.7
2020-Jan-23 17:47 049 2 gusting 9 16.7
2020-Jan-23 17:42 009 2 gusting 9 16.7
2020-Jan-23 17:37 059 0 gusting 7 16.7
2020-Jan-23 17:32 043 16.7
2020-Jan-23 17:27 069 0 gusting 9 16.7
2020-Jan-23 17:22 067 1 gusting 10 16.7
2020-Jan-23 17:17 035 2 gusting 10 16.7
2020-Jan-23 17:12 040 2 gusting 10 16.7
2020-Jan-23 17:07 031 1 gusting 10 16.7
2020-Jan-23 17:02 069 1 gusting 9 16.7
2020-Jan-23 16:57 035 1 gusting 10 16.1
2020-Jan-23 16:52 029 1 gusting 10 16.1
2020-Jan-23 16:47 019 1 gusting 4 16.1
2020-Jan-23 16:42 009 0 gusting 4 16.1
2020-Jan-23 16:37 024 16.1
2020-Jan-23 16:32 024 1 gusting 8 15.6
2020-Jan-23 16:27 019 1 gusting 8 15.6
2020-Jan-23 16:22 021 15.6
2020-Jan-23 16:17 024 15.6
2020-Jan-23 16:12 045 0 gusting 8 15.6
2020-Jan-23 16:07 048 1 gusting 8 15.0
2020-Jan-23 16:02 055 2 gusting 8 15.0
2020-Jan-23 15:42 035 1 gusting 8 14.4
2020-Jan-23 15:37 020 2 gusting 8 14.4
2020-Jan-23 15:32 041 2 gusting 8 13.9
2020-Jan-23 15:27 036 1 gusting 5 13.9
2020-Jan-23 15:22 036 0 gusting 5 13.9
2020-Jan-23 15:17 351 1 gusting 8 13.9
2020-Jan-23 15:12 013 1 gusting 8 13.9
2020-Jan-23 15:07 049 0 gusting 8 13.3
2020-Jan-23 15:02 020 0 gusting 6 13.3
2020-Jan-23 14:57 030 0 gusting 6 13.3
2020-Jan-23 14:52 037 1 gusting 6 12.8
2020-Jan-23 14:47 009 1 gusting 4 12.8
2020-Jan-23 14:42 032 0 gusting 4 12.8
2020-Jan-23 14:37 345 0 gusting 4 12.8
2020-Jan-23 14:32 025 0 gusting 4 12.2
2020-Jan-23 14:27 026 1 gusting 4 12.2
2020-Jan-23 14:22 024 0 gusting 4 12.2
2020-Jan-23 14:17 012 0 gusting 2 12.2
2020-Jan-23 14:12 022 0 gusting 2 11.7
2020-Jan-23 14:07 022 11.7
2020-Jan-23 14:02 019 11.7